Time;durP1;ratioP1;P1;durP2;ratioP2;P2;SDS_P1;SDS_P2;PMS_P1;PMS_P2;Temp;Humidity;BMP_temperature;BMP_pressure;BME280_temperature;BME280_humidity;BME280_pressure;Samples;Min_cycle;Max_cycle;Signal;HPM_P1;HPM_P2
2024/04/12 00:02:07;;;;;;;11.10;6.30;;;;;;;8.27;90.00;98144.21;108587;1274;22561;-72
2024/04/12 00:04:38;;;;;;;8.90;5.40;;;;;;;8.24;89.89;98144.41;108603;1274;22606;-73
2024/04/12 00:07:13;;;;;;;9.20;5.10;;;;;;;8.16;89.84;98149.95;108570;1274;22540;-72
2024/04/12 00:09:44;;;;;;;8.90;5.50;;;;;;;8.15;90.03;98150.13;108526;1274;22518;-72
2024/04/12 00:12:14;;;;;;;8.40;5.80;;;;;;;8.13;90.14;98146.38;108534;1271;22590;-72
2024/04/12 00:14:46;;;;;;;9.20;5.20;;;;;;;8.09;90.07;98140.02;108575;1267;22541;-72
2024/04/12 00:17:18;;;;;;;6.40;4.80;;;;;;;8.03;90.23;98137.90;108568;1268;22521;-73
2024/04/12 00:19:52;;;;;;;7.50;5.40;;;;;;;7.98;90.28;98140.11;108619;1274;22541;-72
2024/04/12 00:22:24;;;;;;;9.10;4.80;;;;;;;7.92;90.38;98137.55;108612;1270;22562;-72
2024/04/12 00:24:54;;;;;;;8.30;5.40;;;;;;;7.91;90.49;98130.88;108609;1267;22529;-73
2024/04/12 00:27:25;;;;;;;8.60;4.90;;;;;;;7.92;90.82;98131.22;108620;1274;22533;-72
2024/04/12 00:29:55;;;;;;;8.20;5.40;;;;;;;7.89;90.86;98126.80;108627;1271;22644;-72
2024/04/12 00:32:26;;;;;;;8.60;5.40;;;;;;;7.91;90.97;98131.44;108620;1271;22536;-72
2024/04/12 00:34:57;;;;;;;10.30;6.00;;;;;;;7.92;90.90;98127.98;108575;1268;22568;-72
2024/04/12 00:37:28;;;;;;;8.60;5.50;;;;;;;7.94;91.06;98124.08;108632;1274;25349;-72
2024/04/12 00:39:59;;;;;;;8.00;5.30;;;;;;;7.96;91.06;98122.17;108620;1267;25448;-72
2024/04/12 00:42:31;;;;;;;9.00;5.40;;;;;;;7.99;90.93;98121.98;108664;1274;22554;-72
2024/04/12 00:45:02;;;;;;;6.60;4.90;;;;;;;8.02;90.92;98118.52;108552;1274;22593;-72
2024/04/12 00:47:34;;;;;;;8.30;5.40;;;;;;;8.02;90.64;98111.86;108608;1274;22525;-72
2024/04/12 00:50:07;;;;;;;8.30;4.80;;;;;;;7.99;90.50;98108.81;108612;1273;22535;-72
2024/04/12 00:52:43;;;;;;;8.10;4.70;;;;;;;7.98;90.52;98104.00;108637;1268;22533;-72
2024/04/12 00:55:13;;;;;;;8.20;5.70;;;;;;;7.98;90.68;98105.27;108575;1274;22582;-72
2024/04/12 00:57:44;;;;;;;9.40;5.80;;;;;;;8.00;90.60;98108.80;108580;1268;27582;-73
2024/04/12 01:00:19;;;;;;;9.20;5.90;;;;;;;8.00;90.65;98107.74;108625;1274;23284;-72
2024/04/12 01:02:51;;;;;;;10.70;6.30;;;;;;;8.01;90.62;98106.83;108590;1268;24244;-72
2024/04/12 01:05:22;;;;;;;9.90;5.60;;;;;;;8.03;90.56;98107.31;108677;1267;22930;-72
2024/04/12 01:07:55;;;;;;;7.40;5.80;;;;;;;8.02;90.61;98107.56;108593;1267;22547;-72
2024/04/12 01:10:30;;;;;;;8.90;6.00;;;;;;;8.02;90.52;98110.08;108611;1274;22557;-72
2024/04/12 01:13:02;;;;;;;9.50;6.60;;;;;;;8.04;90.62;98109.73;108621;1274;22547;-72
2024/04/12 01:15:36;;;;;;;9.30;5.10;;;;;;;8.07;90.13;98108.77;108613;1274;25258;-72
2024/04/12 01:18:14;;;;;;;6.90;5.00;;;;;;;8.04;89.75;98107.98;108570;1267;22533;-72
2024/04/12 01:20:45;;;;;;;6.90;4.70;;;;;;;8.03;89.65;98110.92;108619;1267;22532;-72
2024/04/12 01:23:18;;;;;;;7.30;4.50;;;;;;;7.96;88.94;98109.44;108622;1274;22558;-72
2024/04/12 01:25:51;;;;;;;7.80;4.50;;;;;;;7.88;88.71;98106.45;108563;1274;22526;-72
2024/04/12 01:28:21;;;;;;;10.10;6.30;;;;;;;7.75;88.53;98106.79;108556;1274;22583;-72
2024/04/12 01:30:59;;;;;;;8.50;5.40;;;;;;;7.61;88.85;98104.45;108507;1274;163457;-72
2024/04/12 01:33:31;;;;;;;8.70;5.50;;;;;;;7.54;89.35;98109.93;108556;1274;24332;-72
2024/04/12 01:36:05;;;;;;;8.40;6.30;;;;;;;7.56;89.87;98108.04;108596;1274;24192;-72
2024/04/12 01:38:38;;;;;;;8.00;6.10;;;;;;;7.59;90.06;98107.59;108578;1274;24272;-71
2024/04/12 01:41:10;;;;;;;9.60;6.80;;;;;;;7.61;90.06;98108.52;108618;1274;25262;-71
2024/04/12 01:43:41;;;;;;;10.00;7.70;;;;;;;7.58;89.91;98110.85;108643;1274;22545;-72
2024/04/12 01:46:12;;;;;;;13.10;7.60;;;;;;;7.56;90.02;98114.65;108564;1268;22519;-71
2024/04/12 01:48:43;;;;;;;9.00;6.90;;;;;;;7.56;90.18;98114.80;108598;1274;22538;-72
2024/04/12 01:51:14;;;;;;;10.40;5.90;;;;;;;7.56;90.00;98114.33;108626;1273;22529;-72
2024/04/12 01:53:45;;;;;;;10.20;6.00;;;;;;;7.52;89.80;98115.96;108590;1267;25278;-72
2024/04/12 01:56:21;;;;;;;11.40;7.10;;;;;;;7.45;89.64;98113.86;108564;1274;22542;-72
2024/04/12 01:58:54;;;;;;;9.50;5.90;;;;;;;7.41;89.94;98118.60;108586;1274;26421;-72
2024/04/12 02:01:27;;;;;;;10.70;6.70;;;;;;;7.43;90.02;98118.82;108588;1274;22561;-72
2024/04/12 02:04:02;;;;;;;10.00;5.90;;;;;;;7.47;90.20;98125.13;108599;1274;22522;-71
2024/04/12 02:06:33;;;;;;;9.90;6.30;;;;;;;7.50;90.07;98127.00;108548;1274;23381;-72
2024/04/12 02:09:04;;;;;;;11.60;6.50;;;;;;;7.49;90.04;98131.08;108577;1267;23980;-71
2024/04/12 02:11:37;;;;;;;9.70;5.80;;;;;;;7.47;90.10;98131.83;108589;1267;22529;-72
2024/04/12 02:14:07;;;;;;;9.70;6.80;;;;;;;7.45;89.96;98132.40;108611;1274;22957;-71
2024/04/12 02:16:39;;;;;;;10.30;5.30;;;;;;;7.47;89.98;98129.59;108597;1274;22516;-72
2024/04/12 02:19:13;;;;;;;8.40;5.90;;;;;;;7.43;89.75;98129.90;108548;1274;22653;-72
2024/04/12 02:21:45;;;;;;;10.00;7.10;;;;;;;7.47;90.46;98124.44;108568;1274;22525;-72
2024/04/12 02:24:17;;;;;;;10.40;6.90;;;;;;;7.48;90.19;98126.37;108602;1274;24234;-72
2024/04/12 02:26:50;;;;;;;10.20;6.90;;;;;;;7.51;90.56;98125.33;108584;1274;25411;-72
2024/04/12 02:29:21;;;;;;;11.70;7.50;;;;;;;7.50;90.54;98123.71;108575;1267;22532;-73
2024/04/12 02:31:53;;;;;;;10.50;8.10;;;;;;;7.47;90.39;98124.48;108631;1274;22555;-72
2024/04/12 02:34:24;;;;;;;9.80;7.60;;;;;;;7.47;90.56;98123.63;108707;1263;22472;-72
2024/04/12 02:37:01;;;;;;;10.50;7.20;;;;;;;7.45;90.50;98121.39;108528;1274;25398;-72
2024/04/12 02:39:32;;;;;;;9.00;6.30;;;;;;;7.48;90.53;98123.08;108618;1274;24392;-72
2024/04/12 02:42:05;;;;;;;10.90;6.60;;;;;;;7.52;90.42;98121.77;108586;1267;22582;-72
2024/04/12 02:44:37;;;;;;;11.20;7.10;;;;;;;7.53;90.30;98122.29;108600;1274;25386;-71
2024/04/12 02:47:08;;;;;;;11.20;7.90;;;;;;;7.57;90.72;98124.91;108598;1268;24148;-72
2024/04/12 02:49:52;;;;;;;11.10;8.00;;;;;;;7.59;90.51;98125.38;108595;1271;22523;-72
2024/04/12 02:52:23;;;;;;;13.30;7.50;;;;;;;7.60;90.66;98125.37;108606;1274;22561;-72
2024/04/12 02:54:55;;;;;;;10.10;7.60;;;;;;;7.61;90.47;98121.30;108611;1274;22529;-72
2024/04/12 02:57:28;;;;;;;11.20;7.90;;;;;;;7.60;90.48;98121.15;108587;1268;22660;-72
2024/04/12 02:59:59;;;;;;;11.70;8.40;;;;;;;7.62;90.84;98122.71;108636;1273;22558;-72
2024/04/12 03:02:30;;;;;;;11.80;8.30;;;;;;;7.64;90.75;98126.38;108619;1274;22523;-72
2024/04/12 03:05:01;;;;;;;10.90;8.70;;;;;;;7.65;90.81;98123.88;108618;1274;25375;-72
2024/04/12 03:07:33;;;;;;;13.50;8.50;;;;;;;7.67;90.80;98122.81;108562;1274;22543;-72
2024/04/12 03:10:06;;;;;;;10.50;7.40;;;;;;;7.69;90.77;98122.66;108597;1274;22595;-72
2024/04/12 03:12:37;;;;;;;11.60;8.40;;;;;;;7.69;90.67;98123.62;108588;1268;22667;-72
2024/04/12 03:15:10;;;;;;;14.00;8.90;;;;;;;7.68;90.60;98124.17;108594;1274;22522;-72
2024/04/12 03:17:46;;;;;;;10.70;7.90;;;;;;;7.70;90.76;98124.02;108624;1267;24202;-72
2024/04/12 03:20:18;;;;;;;9.60;7.30;;;;;;;7.72;90.68;98123.05;108598;1268;22536;-72
2024/04/12 03:22:49;;;;;;;9.20;7.50;;;;;;;7.74;90.82;98126.45;108656;1271;22525;-71
2024/04/12 03:25:22;;;;;;;10.90;8.40;;;;;;;7.72;90.81;98127.77;108609;1274;23220;-72
2024/04/12 03:27:52;;;;;;;12.80;7.80;;;;;;;7.73;90.93;98122.35;108577;1268;22542;-72
2024/04/12 03:30:25;;;;;;;11.20;8.30;;;;;;;7.74;91.11;98127.34;108651;1274;22526;-72
2024/04/12 03:33:02;;;;;;;12.20;8.50;;;;;;;7.75;91.18;98132.51;108611;1274;22593;-72
2024/04/12 03:35:36;;;;;;;10.50;7.10;;;;;;;7.75;91.11;98131.16;108546;1268;22521;-71
2024/04/12 03:38:28;;;;;;;9.40;7.70;;;;;;;7.74;91.06;98132.59;108605;1268;22656;-72
2024/04/12 03:41:02;;;;;;;12.70;8.70;;;;;;;7.73;91.27;98134.54;108642;1274;22525;-72
2024/04/12 03:43:34;;;;;;;11.00;9.00;;;;;;;7.69;91.23;98131.27;108589;1274;23180;-72
2024/04/12 03:46:07;;;;;;;11.60;9.20;;;;;;;7.67;91.58;98132.64;108636;1274;22580;-72
2024/04/12 03:48:38;;;;;;;11.90;8.20;;;;;;;7.69;91.78;98137.34;108717;1274;23769;-72
2024/04/12 03:51:09;;;;;;;11.80;8.70;;;;;;;7.71;91.72;98138.17;108631;1274;24225;-72
2024/04/12 03:53:39;;;;;;;12.10;8.60;;;;;;;7.67;91.62;98141.93;108577;1274;22533;-71
2024/04/12 03:56:12;;;;;;;8.80;7.30;;;;;;;7.65;91.69;98150.73;108550;1274;22992;-72
2024/04/12 03:58:42;;;;;;;11.10;8.50;;;;;;;7.64;91.75;98153.67;108630;1270;22529;-72
2024/04/12 04:01:14;;;;;;;11.00;8.30;;;;;;;7.64;91.76;98151.14;108571;1274;22516;-72
2024/04/12 04:03:49;;;;;;;11.10;8.00;;;;;;;7.61;91.61;98151.27;108679;1274;22552;-72
2024/04/12 04:06:21;;;;;;;10.50;8.60;;;;;;;7.56;91.73;98148.59;108578;1274;22527;-72
2024/04/12 04:08:52;;;;;;;11.60;8.60;;;;;;;7.55;91.81;98145.92;108671;1268;22689;-72
2024/04/12 04:11:22;;;;;;;9.50;7.90;;;;;;;7.55;91.97;98143.73;108620;1274;22580;-72
2024/04/12 04:13:56;;;;;;;10.20;8.40;;;;;;;7.55;92.33;98146.66;108630;1274;24092;-72
2024/04/12 04:16:36;;;;;;;10.90;8.20;;;;;;;7.57;92.44;98147.19;108545;1274;22535;-72
2024/04/12 04:19:05;;;;;;;;;;;;;;;7.56;92.66;98146.84;108639;1274;22533;-72
2024/04/12 04:21:38;;;;;;;9.30;7.50;;;;;;;7.59;92.98;98146.86;108599;1270;25245;-72
2024/04/12 04:24:12;;;;;;;13.30;8.50;;;;;;;7.64;92.86;98145.39;108598;1274;22521;-72
2024/04/12 04:26:42;;;;;;;9.00;7.70;;;;;;;7.81;92.99;98148.70;108573;1267;22552;-72
2024/04/12 04:29:13;;;;;;;9.80;7.50;;;;;;;8.21;93.08;98158.21;108436;1267;25325;-72
2024/04/12 04:31:54;;;;;;;9.50;7.00;;;;;;;8.47;92.28;98150.27;108645;1270;22520;-72
2024/04/12 04:34:25;;;;;;;8.80;7.10;;;;;;;8.53;91.46;98146.22;108582;1271;22525;-73
2024/04/12 04:36:56;;;;;;;10.30;7.90;;;;;;;8.62;91.20;98143.12;108698;1266;22641;-73
2024/04/12 04:39:29;;;;;;;9.30;6.70;;;;;;;8.92;90.95;98142.91;108716;1268;24503;-73
2024/04/12 04:42:00;;;;;;;10.10;7.20;;;;;;;9.27;90.17;98143.47;108542;1272;22525;-72
2024/04/12 04:44:31;;;;;;;10.30;6.80;;;;;;;9.72;89.49;98144.02;108588;1273;22531;-73
2024/04/12 04:47:03;;;;;;;9.60;7.50;;;;;;;10.27;88.24;98142.30;108583;1273;22523;-73
2024/04/12 04:49:34;;;;;;;8.40;6.50;;;;;;;10.79;87.98;98142.90;108649;1267;22536;-73
2024/04/12 04:52:08;;;;;;;9.10;7.10;;;;;;;11.23;86.47;98146.80;108729;1273;26598;-73
2024/04/12 04:54:39;;;;;;;11.10;7.30;;;;;;;11.23;84.79;98150.94;108702;1273;26453;-73
2024/04/12 04:57:10;;;;;;;9.00;7.30;;;;;;;11.12;84.73;98152.42;108683;1267;25191;-73
2024/04/12 04:59:44;;;;;;;10.40;7.00;;;;;;;11.23;84.22;98153.38;108675;1267;22533;-72
2024/04/12 05:02:15;;;;;;;9.50;6.90;;;;;;;11.06;83.16;98154.27;108658;1266;22538;-73
2024/04/12 05:04:50;;;;;;;9.80;7.20;;;;;;;10.86;83.19;98156.71;108581;1267;22554;-72
2024/04/12 05:07:26;;;;;;;11.20;6.60;;;;;;;10.79;82.96;98158.71;108547;1268;22613;-72
2024/04/12 05:09:56;;;;;;;8.50;6.40;;;;;;;10.90;83.67;98155.77;108585;1268;25378;-73
2024/04/12 05:12:28;;;;;;;9.30;6.30;;;;;;;12.15;83.93;98156.38;108588;1264;22990;-72
2024/04/12 05:15:04;;;;;;;10.10;6.70;;;;;;;13.42;81.45;98160.69;108624;1268;22539;-72
2024/04/12 05:17:36;;;;;;;7.60;6.10;;;;;;;14.45;78.83;98157.55;108579;1274;22526;-73
2024/04/12 05:20:20;;;;;;;8.50;6.10;;;;;;;15.31;76.85;98160.00;108603;1267;22524;-73
2024/04/12 05:22:50;;;;;;;9.80;6.20;;;;;;;16.34;73.37;98153.73;108599;1268;23310;-73
2024/04/12 05:25:22;;;;;;;8.80;6.30;;;;;;;16.79;69.05;98156.02;108590;1268;22534;-73
2024/04/12 05:27:53;;;;;;;8.30;6.20;;;;;;;17.09;67.96;98158.16;108577;1274;23076;-73
2024/04/12 05:30:23;;;;;;;8.60;5.90;;;;;;;17.56;67.12;98155.34;108596;1267;22536;-73
2024/04/12 05:32:54;;;;;;;9.20;6.30;;;;;;;18.11;65.59;98149.38;108554;1271;22516;-73
2024/04/12 05:35:30;;;;;;;7.20;6.10;;;;;;;18.46;63.71;98151.19;108577;1268;22560;-74
2024/04/12 05:38:07;;;;;;;8.50;5.30;;;;;;;18.74;61.47;98155.47;108713;1268;22529;-73
2024/04/12 05:40:45;;;;;;;7.70;6.10;;;;;;;19.01;61.24;98153.34;108632;1271;22581;-73
2024/04/12 05:43:15;;;;;;;9.10;6.20;;;;;;;19.51;60.04;98151.35;108515;1271;22983;-73
2024/04/12 05:45:49;;;;;;;7.90;5.50;;;;;;;19.85;59.37;98155.73;108576;1274;23301;-73
2024/04/12 05:48:21;;;;;;;7.90;6.40;;;;;;;20.49;57.61;98156.43;108652;1274;22549;-73
2024/04/12 05:50:56;;;;;;;7.00;5.50;;;;;;;20.71;55.61;98155.55;108681;1271;22542;-73
2024/04/12 05:53:30;;;;;;;7.30;5.90;;;;;;;21.17;55.38;98158.19;108576;1251;24238;-73
2024/04/12 05:58:52;;;;;;;6.40;5.10;;;;;;;21.90;52.77;98152.35;108616;1274;24284;-73
2024/04/12 06:01:24;;;;;;;8.50;5.50;;;;;;;22.33;52.26;98150.13;108579;1271;25279;-74
2024/04/12 06:03:56;;;;;;;7.10;5.50;;;;;;;22.66;51.18;98148.41;108580;1274;22519;-73
2024/04/12 06:06:30;;;;;;;9.00;5.30;;;;;;;22.81;49.39;98146.95;108517;1267;22522;-73
2024/04/12 06:09:05;;;;;;;7.40;5.40;;;;;;;22.95;48.53;98147.94;108629;1272;24225;-73
2024/04/12 06:11:37;;;;;;;7.50;5.10;;;;;;;23.23;48.56;98150.23;108573;1274;22551;-73
2024/04/12 06:14:09;;;;;;;5.90;4.40;;;;;;;23.52;47.47;98155.13;108406;1263;22525;-74
2024/04/12 06:16:40;;;;;;;7.20;4.80;;;;;;;23.74;46.45;98146.83;108339;1267;24279;-74
2024/04/12 06:19:12;;;;;;;7.70;5.40;;;;;;;23.85;46.22;98147.18;108476;1267;22578;-74
2024/04/12 06:21:45;;;;;;;8.10;5.00;;;;;;;24.55;45.54;98145.91;108566;1274;22515;-74
2024/04/12 06:24:17;;;;;;;7.30;4.80;;;;;;;24.74;44.68;98145.36;108600;1268;25417;-73
2024/04/12 06:26:48;;;;;;;7.80;5.00;;;;;;;24.61;42.27;98141.73;108444;1268;22562;-74
2024/04/12 06:29:22;;;;;;;7.10;4.80;;;;;;;24.69;43.95;98139.85;108534;1268;24284;-74
2024/04/12 06:31:55;;;;;;;6.30;4.50;;;;;;;25.39;43.13;98138.64;108595;1273;22635;-73
2024/04/12 06:34:26;;;;;;;7.60;4.90;;;;;;;25.57;41.35;98137.21;108609;1268;22552;-74
2024/04/12 06:36:57;;;;;;;6.00;4.80;;;;;;;25.60;41.42;98137.02;108600;1268;22533;-74
2024/04/12 06:39:28;;;;;;;6.80;4.70;;;;;;;25.77;40.73;98134.45;108580;1271;22545;-74
2024/04/12 06:42:04;;;;;;;9.40;4.70;;;;;;;26.19;40.55;98131.48;108533;1268;22546;-74
2024/04/12 06:44:35;;;;;;;5.80;4.50;;;;;;;26.33;39.25;98128.41;108632;1267;22526;-74
2024/04/12 06:47:09;;;;;;;6.50;4.50;;;;;;;26.19;39.43;98122.70;108671;1271;22577;-74
2024/04/12 06:49:44;;;;;;;7.30;4.50;;;;;;;26.56;39.54;98125.50;108715;1268;22589;-74
2024/04/12 06:52:20;;;;;;;5.20;4.00;;;;;;;27.18;38.94;98120.18;108510;1268;22529;-74
2024/04/12 06:54:52;;;;;;;8.80;4.30;;;;;;;27.16;37.47;98122.00;108656;1268;22641;-74
2024/04/12 06:57:24;;;;;;;5.50;4.00;;;;;;;26.93;36.84;98120.52;108566;1266;22522;-74
2024/04/12 06:59:58;;;;;;;4.80;4.10;;;;;;;26.45;36.51;98120.92;108647;1266;23747;-75
2024/04/12 07:02:29;;;;;;;7.00;4.40;;;;;;;26.50;37.68;98117.77;108690;1267;22645;-75
2024/04/12 07:05:01;;;;;;;6.60;3.90;;;;;;;27.35;37.69;98119.14;108593;1267;22548;-76
2024/04/12 07:07:37;;;;;;;5.10;4.20;;;;;;;27.74;35.56;98118.56;108677;1271;22540;-76
2024/04/12 07:10:10;;;;;;;7.20;4.20;;;;;;;27.88;35.87;98120.44;108639;1267;22520;-76
2024/04/12 07:12:43;;;;;;;6.20;4.30;;;;;;;28.03;35.59;98115.39;108596;1273;22583;-76
2024/04/12 07:15:21;;;;;;;4.50;3.80;;;;;;;28.34;35.49;98118.71;108614;1271;27152;-76
2024/04/12 07:17:51;;;;;;;4.90;3.90;;;;;;;28.77;35.43;98123.41;108586;1267;23330;-76
2024/04/12 07:20:27;;;;;;;5.10;3.90;;;;;;;29.26;34.87;98122.38;108656;1268;22572;-76
2024/04/12 07:22:58;;;;;;;5.70;3.90;;;;;;;29.52;34.52;98121.59;108636;1268;22670;-76
2024/04/12 07:25:29;;;;;;;5.90;3.70;;;;;;;29.92;33.32;98124.10;108653;1267;22705;-76
2024/04/12 07:28:00;;;;;;;5.80;4.10;;;;;;;29.53;32.93;98120.14;108674;1271;22533;-76
2024/04/12 07:30:31;;;;;;;7.20;4.20;;;;;;;29.90;33.29;98123.92;108721;1270;22533;-76
2024/04/12 07:33:05;;;;;;;6.30;3.60;;;;;;;30.51;32.91;98124.13;108695;1274;25237;-76
2024/04/12 07:35:36;;;;;;;3.80;3.00;;;;;;;31.02;32.48;98117.20;108690;1268;22533;-76
2024/04/12 07:38:08;;;;;;;5.80;3.30;;;;;;;31.41;31.35;98111.48;108628;1268;22536;-76
2024/04/12 07:40:42;;;;;;;5.00;3.70;;;;;;;31.32;30.51;98111.48;108630;1268;22873;-76
2024/04/12 07:43:13;;;;;;;4.60;3.30;;;;;;;31.86;31.17;98110.50;108426;1268;24277;-76
2024/04/12 07:45:43;;;;;;;4.10;2.70;;;;;;;32.53;30.44;98106.71;108575;1268;22563;-76
2024/04/12 07:48:25;;;;;;;4.60;2.70;;;;;;;32.90;29.64;98107.09;108576;1273;22544;-76
2024/04/12 07:50:59;;;;;;;4.50;3.20;;;;;;;32.97;28.74;98100.51;108602;1268;23275;-76
2024/04/12 07:53:34;;;;;;;4.60;2.80;;;;;;;32.71;28.62;98091.55;108552;1271;25071;-76
2024/04/12 07:56:15;;;;;;;4.40;2.60;;;;;;;32.79;28.47;98092.13;108585;1271;22529;-76
2024/04/12 07:59:01;;;;;;;4.10;2.80;;;;;;;33.35;28.70;98088.85;108620;1259;25326;-76
2024/04/12 08:01:34;;;;;;;3.50;2.60;;;;;;;33.76;27.65;98090.23;108659;1273;25302;-75
2024/04/12 08:04:06;;;;;;;3.50;2.00;;;;;;;33.99;27.28;98089.67;108659;1268;22670;-75
2024/04/12 08:06:55;;;;;;;3.00;2.30;;;;;;;34.18;27.61;98094.02;108627;1268;22545;-74
2024/04/12 08:09:34;;;;;;;5.00;2.80;;;;;;;34.65;26.98;98096.36;108581;1267;22561;-75
2024/04/12 08:12:13;;;;;;;;;;;;;;;35.06;26.62;98096.70;108583;1273;25265;-73
2024/04/12 08:14:52;;;;;;;4.10;2.50;;;;;;;35.01;25.24;98091.29;108618;1268;22597;-73
2024/04/12 08:17:27;;;;;;;4.90;2.40;;;;;;;34.97;25.07;98089.58;108589;1269;22542;-72
2024/04/12 08:20:12;;;;;;;2.90;2.10;;;;;;;34.72;23.85;98084.44;108649;1273;22650;-70
2024/04/12 08:22:43;;;;;;;4.90;2.50;;;;;;;33.25;23.57;98080.27;108685;1273;24300;-70
2024/04/12 08:25:17;;;;;;;3.40;2.30;;;;;;;33.35;26.01;98077.36;108674;1273;23226;-70
2024/04/12 08:27:54;;;;;;;5.20;2.30;;;;;;;34.08;25.11;98082.57;108441;1268;22562;-71
2024/04/12 08:30:28;;;;;;;4.90;2.70;;;;;;;33.17;24.23;98081.89;108674;1268;22526;-71
2024/04/12 08:33:02;;;;;;;5.40;2.50;;;;;;;32.37;24.80;98076.67;108422;1273;22521;-70
2024/04/12 08:35:36;;;;;;;3.40;2.50;;;;;;;32.16;24.99;98072.20;108699;1274;24083;-71
2024/04/12 08:38:12;;;;;;;4.90;2.30;;;;;;;31.18;24.84;98069.52;108707;1271;22561;-70
2024/04/12 08:40:44;;;;;;;5.30;2.50;;;;;;;30.38;25.02;98071.41;108716;1274;22530;-73
2024/04/12 08:43:20;;;;;;;6.20;2.70;;;;;;;29.68;25.85;98072.89;108658;1274;22553;-73
2024/04/12 08:46:03;;;;;;;5.50;2.40;;;;;;;29.43;26.17;98070.54;108635;1274;22869;-72
2024/04/12 08:48:34;;;;;;;6.40;2.40;;;;;;;30.36;27.73;98071.36;108511;1273;22611;-70
2024/04/12 08:51:08;;;;;;;6.90;2.40;;;;;;;31.72;26.80;98065.50;108688;1271;22526;-70
2024/04/12 08:53:44;;;;;;;4.90;2.20;;;;;;;32.15;26.01;98063.02;108624;1273;22568;-70
2024/04/12 08:56:17;;;;;;;6.20;2.50;;;;;;;31.24;25.61;98056.43;108504;1268;25335;-70
2024/04/12 08:58:52;;;;;;;6.40;2.50;;;;;;;29.55;25.17;98059.88;108479;1270;22541;-70
2024/04/12 09:01:26;;;;;;;3.00;2.00;;;;;;;27.57;26.70;98060.20;108577;1274;22545;-73
2024/04/12 09:04:04;;;;;;;6.50;2.80;;;;;;;26.62;27.45;98062.92;108488;1269;22522;-72
2024/04/12 09:06:35;;;;;;;3.80;2.00;;;;;;;25.31;29.02;98065.92;108518;1268;24197;-73
2024/04/12 09:09:07;;;;;;;4.10;2.50;;;;;;;24.97;29.80;98064.32;108453;1273;22550;-72
2024/04/12 09:11:38;;;;;;;6.60;2.60;;;;;;;24.53;30.71;98055.75;108582;1274;23178;-72
2024/04/12 09:14:19;;;;;;;5.20;2.40;;;;;;;24.21;31.39;98051.73;108522;1274;22525;-72
2024/04/12 09:17:00;;;;;;;4.80;2.00;;;;;;;23.88;32.12;98052.95;108591;1271;22564;-72
2024/04/12 09:19:38;;;;;;;4.10;2.40;;;;;;;23.62;32.12;98058.08;108595;1274;22580;-72
2024/04/12 09:22:09;;;;;;;5.70;2.00;;;;;;;23.41;32.37;98060.02;108503;1268;22522;-72
2024/04/12 09:24:41;;;;;;;4.00;2.20;;;;;;;23.23;32.64;98055.84;108582;1270;22526;-72
2024/04/12 09:27:13;;;;;;;4.20;2.20;;;;;;;23.24;33.09;98052.58;108587;1273;24380;-72
2024/04/12 09:29:54;;;;;;;3.40;1.90;;;;;;;23.11;33.35;98054.60;108563;1273;25502;-72
2024/04/12 09:35:18;;;;;;;4.60;2.50;;;;;;;21.62;33.92;98056.71;108557;1274;25399;-72
2024/04/12 09:37:54;;;;;;;4.90;2.40;;;;;;;21.11;34.89;98054.17;108563;1271;22642;-72
2024/04/12 09:40:28;;;;;;;5.80;2.20;;;;;;;21.02;36.09;98056.98;108577;1271;22525;-72
2024/04/12 09:45:53;;;;;;;4.50;2.30;;;;;;;20.54;36.38;98053.02;108478;1271;25365;-72
2024/04/12 10:39:33;;;;;;;;;;;;;;;20.67;39.73;97998.95;108684;1274;22612;-69
2024/04/12 10:42:05;;;;;;;5.80;2.30;;;;;;;20.64;39.60;97994.24;108687;1274;21862;-69
2024/04/12 11:41:56;;;;;;;4.90;2.60;;;;;;;19.68;42.46;97936.47;105300;1312;544766;-70
2024/04/12 11:44:29;;;;;;;4.50;2.40;;;;;;;19.70;42.54;97933.42;107955;1282;22535;-70
2024/04/12 11:47:02;;;;;;;6.70;2.40;;;;;;;19.64;41.63;97927.80;107775;1284;22567;-69
2024/04/12 11:49:41;;;;;;;5.60;2.70;;;;;;;19.72;42.03;97923.27;108247;1279;22960;-69
2024/04/12 11:52:16;;;;;;;7.00;2.40;;;;;;;19.77;42.54;97922.42;108219;1279;24232;-70
2024/04/12 11:54:51;;;;;;;5.20;2.40;;;;;;;19.82;41.72;97916.94;108208;1277;171477;-70
2024/04/12 11:57:23;;;;;;;8.10;2.60;;;;;;;19.79;41.88;97912.81;108368;1276;22532;-71
2024/04/12 11:59:58;;;;;;;4.00;2.10;;;;;;;19.67;41.83;97907.95;108127;1269;22550;-71
2024/04/12 12:02:37;;;;;;;3.30;2.30;;;;;;;19.64;41.76;97903.42;108256;1273;22556;-71
2024/04/12 12:05:08;;;;;;;5.40;2.20;;;;;;;19.58;41.53;97906.36;108357;1275;22528;-71
2024/04/12 12:07:44;;;;;;;3.60;2.30;;;;;;;19.55;41.57;97905.66;108287;1276;22540;-72
2024/04/12 12:10:15;;;;;;;5.00;2.30;;;;;;;19.69;42.01;97898.63;108200;1277;22553;-72
2024/04/12 12:12:46;;;;;;;5.80;1.90;;;;;;;19.90;42.05;97894.90;108259;1277;22543;-73
2024/04/12 12:15:19;;;;;;;6.40;2.10;;;;;;;20.08;42.08;97890.77;108357;1276;22644;-72
2024/04/12 12:17:50;;;;;;;2.80;1.90;;;;;;;20.20;42.09;97886.48;108332;1275;24417;-72
2024/04/12 12:20:21;;;;;;;3.10;1.70;;;;;;;20.27;42.32;97881.52;108469;1277;22552;-72
2024/04/12 12:22:51;;;;;;;3.60;1.40;;;;;;;20.41;42.51;97883.63;108515;1269;22569;-72
2024/04/12 12:25:26;;;;;;;3.70;1.70;;;;;;;20.51;42.23;97875.88;108526;1277;24332;-73
2024/04/12 12:28:00;;;;;;;3.40;1.90;;;;;;;20.50;41.31;97873.60;108613;1272;22569;-72
2024/04/12 12:30:33;;;;;;;2.70;1.40;;;;;;;20.41;41.23;97870.31;108522;1276;22532;-72
2024/04/12 12:33:07;;;;;;;2.30;1.60;;;;;;;20.30;41.15;97872.31;108508;1269;22554;-72
2024/04/12 12:35:39;;;;;;;4.00;2.10;;;;;;;20.27;41.82;97873.22;108498;1272;22577;-72
2024/04/12 12:38:20;;;;;;;2.90;1.80;;;;;;;20.37;42.42;97868.84;108359;1275;23828;-73
2024/04/12 12:40:54;;;;;;;4.70;1.80;;;;;;;20.51;42.24;97865.95;108399;1277;22549;-73
2024/04/12 12:43:28;;;;;;;4.10;2.10;;;;;;;20.48;42.14;97865.83;108310;1274;22568;-71
2024/04/12 12:46:00;;;;;;;2.50;1.80;;;;;;;20.57;42.75;97863.41;108309;1269;22712;-71
2024/04/12 12:48:34;;;;;;;4.50;1.80;;;;;;;20.67;42.42;97861.67;108210;1269;22526;-71
2024/04/12 12:51:06;;;;;;;2.80;1.80;;;;;;;20.74;42.35;97854.92;108559;1277;25397;-70
2024/04/12 12:53:43;;;;;;;6.30;2.20;;;;;;;20.54;41.02;97855.96;108334;1277;24901;-70
2024/04/12 12:56:19;;;;;;;4.40;1.90;;;;;;;20.38;41.50;97860.30;108343;1270;22517;-70
2024/04/12 12:58:53;;;;;;;5.80;1.80;;;;;;;20.45;41.47;97856.23;108354;1277;22532;-70
2024/04/12 13:01:34;;;;;;;3.40;1.60;;;;;;;20.47;41.64;97853.94;108354;1270;22552;-70
2024/04/12 13:04:09;;;;;;;4.60;1.70;;;;;;;20.54;41.81;97846.90;108496;1269;25752;-71
2024/04/12 13:06:45;;;;;;;3.10;1.60;;;;;;;20.58;41.62;97840.87;108487;1278;22760;-70
2024/04/12 13:09:17;;;;;;;3.40;1.80;;;;;;;20.67;42.09;97838.09;108473;1270;22995;-70
2024/04/12 13:11:51;;;;;;;4.30;1.90;;;;;;;20.76;41.86;97838.68;108476;1277;22892;-71
2024/04/12 13:14:27;;;;;;;5.80;2.10;;;;;;;20.81;42.01;97831.13;108451;1272;22540;-71
2024/04/12 13:17:11;;;;;;;4.40;1.70;;;;;;;20.69;41.76;97825.41;108445;1270;22519;-71
2024/04/12 13:19:46;;;;;;;3.70;1.90;;;;;;;20.55;42.30;97827.38;108455;1270;26569;-71
2024/04/12 13:22:24;;;;;;;4.10;1.70;;;;;;;20.55;42.27;97826.15;108391;1276;22544;-70
2024/04/12 13:24:57;;;;;;;2.80;1.50;;;;;;;20.56;42.13;97819.42;108339;1274;25338;-72
2024/04/12 13:27:29;;;;;;;3.90;1.90;;;;;;;20.63;42.54;97817.29;108366;1274;23975;-72
2024/04/12 13:30:14;;;;;;;2.80;1.60;;;;;;;20.68;42.72;97819.01;108360;1270;22532;-72
2024/04/12 13:32:58;;;;;;;3.70;1.70;;;;;;;20.70;42.18;97817.15;108406;1274;22619;-72
2024/04/12 13:35:32;;;;;;;4.30;2.10;;;;;;;20.54;41.38;97808.98;108473;1270;22556;-72
2024/04/12 13:38:12;;;;;;;3.30;1.90;;;;;;;20.31;41.70;97808.42;108351;1269;22533;-72
2024/04/12 13:40:54;;;;;;;3.80;1.70;;;;;;;20.30;41.94;97806.93;108274;1275;22646;-73
2024/04/12 13:43:29;;;;;;;3.00;1.70;;;;;;;20.29;41.65;97795.93;108536;1270;22540;-72
2024/04/12 13:51:49;;;;;;;4.00;1.70;;;;;;;20.50;42.69;97793.70;108347;1272;25250;-73
2024/04/12 13:54:20;;;;;;;;;;;;;;;20.39;42.18;97798.95;108384;1278;22900;-72
2024/04/12 13:56:57;;;;;;;2.90;1.70;;;;;;;20.32;42.69;97798.48;108363;1277;22544;-73
2024/04/12 13:59:38;;;;;;;4.40;1.90;;;;;;;20.35;42.88;97809.83;108342;1277;22536;-72